LiveATC.Net - Listen to live air traffic control over the Internet!


ICAO: KATW  IATA: ATW   Airport: Appleton International Airport
City: Appleton   State/Province: Wisconsin
Country: United States   Continent: North America
KATW METAR Weather: KATW 060615Z AUTO 07012G17KT 10SM SCT012 SCT020 OVC030 20/17 A2991 RMK AO2
KATW Flight Activity (FlightAware)
KATW Airport Info   (iFlightPlanner)
KATW VFR Sectional Chart   (iFlightPlanner) 
KATW IFR Low Altitude Chart   (iFlightPlanner) 
KATW IFR High Altitude Chart   (iFlightPlanner) 

KATW Tower
Feed Status: DOWN
Last heard on: 2022-07-05 22:25:39 (0 days 8 hours 22 minutes ago)
Archive Access: KATW Tower
FacilityFrequency
Appleton Tower119.600

NOTICE

Unauthorized use prohibited. See LiveATC.net Terms of Service


Airport/ARTCC Code
Frequency Search
(e.g., 124.400, 128.75)
Site-wide search
 


Browse Feeds
Top 50 Feeds
HF Oceanic Feeds
Coverage Map
Bad Weather Areas

LiveATC FAQ
Offer LiveATC feed
Contact LiveATC.net
Press Inquiries

LiveATC on iPhone
LiveATC on Android

LiveATC Mobile
(Mobile browser)

ATC Audio Archives
Interesting Recordings

LiveATC Forums


Home Page
About LiveATC.net


Terms of Use
Privacy Policy

AIRMETs/SIGMETs

FAA Airport Status
NAS Status
Arrival Demand


Server Software By:
Icecast.org
Liquidsoap